Terminal Aerodrome Forecast
Issued by NWS

Home | Current Version | Previous Version | Graphics & Text | Print | Product List | Glossary On
Versions: 1 2 3 4 5 6 7 8 9 10 11 12 13 14 15 16 17 18 19 20 21 22 23 24 25 26 27 28 29 30 31 32
104
FTUS42 KMHX 250532
TAFISO
TAF
KISO 250532Z 2506/2606 17010G15KT 6SM -SHRA BKN015 OVC025
     FM251100 21010G15KT P6SM SCT020 BKN250
     FM251500 22015G25KT P6SM SCT050
     FM251800 23015G25KT P6SM BKN090
     FM252300 24010KT P6SM BKN090
     FM260200 24010KT P6SM SCT050
      AMD LTD TO CLD VIS AND WIND=

USA.gov is the U.S. government's official web portal to all federal, state and local government web resources and services.